WZZ596B EPKT-GCTS
Flight info
| Callsign | WZZ596B |
|---|---|
| Flight time | 5h 48m |
| Altitude | 32000 |
| Route | TUSIN DCT MIKOV DCT STO DCT GAMLI DCT DETSA/N0461F310 DCT GEKBA/N0459F330 DCT VAMTU DCT KOLON DCT GANGU DCT PADKO DCT DIVKO DCT MAMES DCT BISBA DCT BGR DCT NENDA DCT BCN DCT RODRA DCT PEXOT DCT EBROX DCT LOTOS DCT TORDU DCT DIKUT DCT SOPET DCT VLC DCT SERRA DCT ASTRO DCT POBOS DCT XEBAR DCT YES DCT MAMIS DCT BAZAS DCT VIBAS DCT MGA/N0458F350 DCT BRIKE DCT VJF L82 RUNAX UL82 IBALU UN857 TERTO |
| Aircraft | A21N/M-SDE3FGHIRWY/LB1 |
Departure
| Time | 2026-05-07 11:52 |
|---|---|
| Airport | Katowice Wojciech Korfanty International Airport (EPKT) |
Arrival
| Time | 2026-05-07 17:40 |
|---|---|
| Airport | Tenerife Sur Airport (GCTS) |
| Time | Latitude | Longitude | Altitude | Speed | Heading |
|---|---|---|---|---|---|
| 2026-05-07 11:05 | 50.47154 | 19.06965 | 980 ft | 0 kts | 180° |
| 2026-05-07 11:38 | 50.47158 | 19.06965 | 979 ft | 0 kts | 180° |
| 2026-05-07 11:38 | 50.47165 | 19.06965 | 979 ft | 1 kts | 180° |
| 2026-05-07 11:39 | 50.47177 | 19.06965 | 979 ft | 1 kts | 180° |
| 2026-05-07 11:39 | 50.47191 | 19.06965 | 979 ft | 2 kts | 180° |
| 2026-05-07 11:39 | 50.47209 | 19.06965 | 979 ft | 2 kts | 180° |
| 2026-05-07 11:39 | 50.47228 | 19.06965 | 978 ft | 2 kts | 180° |
| 2026-05-07 11:40 | 50.47245 | 19.06966 | 978 ft | 2 kts | 180° |
| 2026-05-07 11:40 | 50.47259 | 19.06966 | 978 ft | 0 kts | 180° |
| 2026-05-07 11:40 | 50.47260 | 19.06966 | 978 ft | 0 kts | 180° |
| 2026-05-07 11:43 | 50.47232 | 19.06966 | 978 ft | 1 kts | 180° |
| 2026-05-07 11:44 | 50.47223 | 19.06987 | 978 ft | 4 kts | 94° |
| 2026-05-07 11:45 | 50.47229 | 19.07049 | 979 ft | 5 kts | 73° |
| 2026-05-07 11:45 | 50.47236 | 19.07186 | 981 ft | 19 kts | 90° |
| 2026-05-07 11:45 | 50.47237 | 19.07399 | 981 ft | 19 kts | 89° |
| 2026-05-07 11:45 | 50.47236 | 19.07597 | 983 ft | 17 kts | 91° |
| 2026-05-07 11:46 | 50.47235 | 19.07787 | 983 ft | 17 kts | 90° |
| 2026-05-07 11:46 | 50.47235 | 19.07974 | 983 ft | 16 kts | 89° |
| 2026-05-07 11:46 | 50.47235 | 19.08155 | 983 ft | 16 kts | 90° |
| 2026-05-07 11:46 | 50.47235 | 19.08323 | 985 ft | 14 kts | 90° |
| 2026-05-07 11:47 | 50.47234 | 19.08489 | 985 ft | 15 kts | 90° |
| 2026-05-07 11:47 | 50.47234 | 19.08660 | 986 ft | 17 kts | 89° |
| 2026-05-07 11:47 | 50.47234 | 19.08847 | 988 ft | 16 kts | 90° |
| 2026-05-07 11:47 | 50.47233 | 19.09012 | 991 ft | 13 kts | 90° |
| 2026-05-07 11:48 | 50.47233 | 19.09185 | 993 ft | 17 kts | 90° |
| 2026-05-07 11:48 | 50.47233 | 19.09365 | 995 ft | 15 kts | 90° |
| 2026-05-07 11:48 | 50.47232 | 19.09520 | 998 ft | 14 kts | 89° |
| 2026-05-07 11:48 | 50.47232 | 19.09664 | 1001 ft | 12 kts | 90° |
| 2026-05-07 11:49 | 50.47231 | 19.09803 | 1005 ft | 17 kts | 90° |
| 2026-05-07 11:49 | 50.47234 | 19.10001 | 1010 ft | 16 kts | 78° |
| 2026-05-07 11:49 | 50.47284 | 19.10142 | 1012 ft | 14 kts | 52° |
| 2026-05-07 11:49 | 50.47349 | 19.10268 | 1011 ft | 15 kts | 49° |
| 2026-05-07 11:50 | 50.47418 | 19.10398 | 1010 ft | 15 kts | 50° |
| 2026-05-07 11:50 | 50.47505 | 19.10470 | 1008 ft | 16 kts | 3° |
| 2026-05-07 11:50 | 50.47599 | 19.10450 | 1007 ft | 10 kts | 293° |
| 2026-05-07 11:50 | 50.47593 | 19.10381 | 1007 ft | 6 kts | 269° |
| 2026-05-07 11:51 | 50.47595 | 19.10309 | 1006 ft | 7 kts | 273° |
| 2026-05-07 11:51 | 50.47599 | 19.10000 | 1000 ft | 62 kts | 270° |
| 2026-05-07 11:51 | 50.47598 | 19.08961 | 984 ft | 125 kts | 270° |
| 2026-05-07 11:51 | 50.47611 | 19.07317 | 1005 ft | 172 kts | 271° |
| 2026-05-07 11:52 | 50.47638 | 19.05443 | 1527 ft | 174 kts | 272° |
| 2026-05-07 11:52 | 50.47698 | 19.03554 | 2102 ft | 178 kts | 271° |
| 2026-05-07 11:52 | 50.47680 | 19.01574 | 2624 ft | 187 kts | 269° |
| 2026-05-07 11:52 | 50.47655 | 18.99498 | 2931 ft | 199 kts | 269° |
| 2026-05-07 11:53 | 50.47637 | 18.97234 | 3207 ft | 214 kts | 270° |
| 2026-05-07 11:53 | 50.47629 | 18.94802 | 3443 ft | 232 kts | 270° |
| 2026-05-07 11:53 | 50.47617 | 18.92208 | 3753 ft | 247 kts | 269° |
| 2026-05-07 11:53 | 50.47584 | 18.89467 | 4154 ft | 258 kts | 269° |
| 2026-05-07 11:54 | 50.47546 | 18.86641 | 4772 ft | 260 kts | 268° |
| 2026-05-07 11:54 | 50.47508 | 18.83823 | 5419 ft | 260 kts | 268° |
| 2026-05-07 11:54 | 50.47469 | 18.81004 | 6041 ft | 261 kts | 268° |
| 2026-05-07 11:54 | 50.47430 | 18.78141 | 6652 ft | 263 kts | 268° |
| 2026-05-07 11:55 | 50.47390 | 18.75304 | 7229 ft | 264 kts | 268° |
| 2026-05-07 11:55 | 50.47349 | 18.72434 | 7782 ft | 267 kts | 268° |
| 2026-05-07 11:55 | 50.47307 | 18.69482 | 8336 ft | 269 kts | 267° |
| 2026-05-07 11:55 | 50.47265 | 18.66563 | 8869 ft | 272 kts | 267° |
| 2026-05-07 11:56 | 50.47223 | 18.63621 | 9408 ft | 274 kts | 267° |
| 2026-05-07 11:56 | 50.47161 | 18.60640 | 9925 ft | 275 kts | 262° |
| 2026-05-07 11:56 | 50.46587 | 18.57771 | 10286 ft | 280 kts | 238° |
| 2026-05-07 11:56 | 50.45245 | 18.55534 | 10492 ft | 292 kts | 214° |
| 2026-05-07 11:57 | 50.43394 | 18.54068 | 10726 ft | 304 kts | 206° |
| 2026-05-07 11:57 | 50.41461 | 18.52664 | 11035 ft | 313 kts | 206° |
| 2026-05-07 11:57 | 50.39478 | 18.51206 | 11489 ft | 317 kts | 205° |
| 2026-05-07 11:57 | 50.37334 | 18.50319 | 11792 ft | 326 kts | 183° |
| 2026-05-07 11:58 | 50.35062 | 18.50559 | 12310 ft | 328 kts | 176° |
| 2026-05-07 11:58 | 50.32812 | 18.50982 | 12825 ft | 330 kts | 175° |
| 2026-05-07 11:58 | 50.30521 | 18.51392 | 13295 ft | 331 kts | 176° |
| 2026-05-07 11:58 | 50.28225 | 18.51757 | 13757 ft | 333 kts | 177° |
| 2026-05-07 11:59 | 50.25929 | 18.52090 | 14201 ft | 335 kts | 177° |
| 2026-05-07 11:59 | 50.23616 | 18.52405 | 14635 ft | 337 kts | 178° |
| 2026-05-07 11:59 | 50.21285 | 18.52709 | 15070 ft | 339 kts | 178° |
| 2026-05-07 11:59 | 50.18921 | 18.53009 | 15503 ft | 341 kts | 178° |
| 2026-05-07 12:00 | 50.16566 | 18.53304 | 15914 ft | 342 kts | 178° |
| 2026-05-07 12:00 | 50.14199 | 18.53598 | 16330 ft | 344 kts | 178° |
| 2026-05-07 12:00 | 50.11823 | 18.53890 | 16731 ft | 346 kts | 178° |
| 2026-05-07 12:00 | 50.09411 | 18.54187 | 17119 ft | 347 kts | 178° |
| 2026-05-07 12:01 | 50.07015 | 18.54478 | 17509 ft | 349 kts | 178° |
| 2026-05-07 12:01 | 50.04586 | 18.54774 | 17860 ft | 352 kts | 178° |
| 2026-05-07 12:01 | 50.02157 | 18.55072 | 18232 ft | 353 kts | 178° |
| 2026-05-07 12:01 | 49.99702 | 18.55372 | 18611 ft | 354 kts | 178° |
| 2026-05-07 12:02 | 49.97251 | 18.55670 | 19007 ft | 354 kts | 178° |
| 2026-05-07 12:02 | 49.94830 | 18.55964 | 19376 ft | 355 kts | 178° |
| 2026-05-07 12:02 | 49.92350 | 18.56265 | 19741 ft | 356 kts | 178° |
| 2026-05-07 12:02 | 49.89880 | 18.56564 | 20088 ft | 357 kts | 179° |
| 2026-05-07 12:03 | 49.87409 | 18.56705 | 20411 ft | 356 kts | 188° |
| 2026-05-07 12:03 | 49.85033 | 18.55751 | 20739 ft | 353 kts | 205° |
| 2026-05-07 12:03 | 49.83001 | 18.53689 | 21094 ft | 354 kts | 222° |
| 2026-05-07 12:03 | 49.81387 | 18.50851 | 21455 ft | 356 kts | 229° |
| 2026-05-07 12:04 | 49.79819 | 18.47870 | 21776 ft | 357 kts | 229° |
| 2026-05-07 12:04 | 49.78263 | 18.44922 | 22064 ft | 359 kts | 228° |
| 2026-05-07 12:04 | 49.76674 | 18.41916 | 22359 ft | 360 kts | 228° |
| 2026-05-07 12:04 | 49.75085 | 18.38913 | 22695 ft | 360 kts | 228° |
| 2026-05-07 12:05 | 49.73512 | 18.35939 | 23012 ft | 361 kts | 228° |
| 2026-05-07 12:05 | 49.71930 | 18.32957 | 23328 ft | 362 kts | 227° |
| 2026-05-07 12:05 | 49.70337 | 18.29950 | 23629 ft | 362 kts | 227° |
| 2026-05-07 12:05 | 49.68745 | 18.26950 | 23917 ft | 363 kts | 227° |
| 2026-05-07 12:06 | 49.67127 | 18.23904 | 24195 ft | 365 kts | 227° |
| 2026-05-07 12:06 | 49.65531 | 18.20902 | 24442 ft | 366 kts | 227° |
| 2026-05-07 12:06 | 49.63903 | 18.17845 | 24693 ft | 368 kts | 227° |
| 2026-05-07 12:06 | 49.62284 | 18.14810 | 24945 ft | 370 kts | 227° |
| 2026-05-07 12:07 | 49.60642 | 18.11731 | 25166 ft | 372 kts | 227° |
| 2026-05-07 12:07 | 49.59005 | 18.08666 | 25378 ft | 374 kts | 227° |
| 2026-05-07 12:07 | 49.57358 | 18.05586 | 25599 ft | 375 kts | 227° |
| 2026-05-07 12:07 | 49.55700 | 18.02489 | 25824 ft | 376 kts | 227° |
| 2026-05-07 12:08 | 49.54047 | 17.99405 | 26036 ft | 378 kts | 227° |
| 2026-05-07 12:08 | 49.52371 | 17.96281 | 26262 ft | 379 kts | 227° |
| 2026-05-07 12:08 | 49.50687 | 17.93147 | 26470 ft | 380 kts | 227° |
| 2026-05-07 12:08 | 49.49018 | 17.90038 | 26675 ft | 381 kts | 227° |
| 2026-05-07 12:09 | 49.47341 | 17.86922 | 26866 ft | 382 kts | 227° |
| 2026-05-07 12:09 | 49.45643 | 17.83775 | 27073 ft | 383 kts | 227° |
| 2026-05-07 12:09 | 49.43939 | 17.80620 | 27255 ft | 384 kts | 227° |
| 2026-05-07 12:09 | 49.42247 | 17.77489 | 27438 ft | 386 kts | 227° |
| 2026-05-07 12:10 | 49.40520 | 17.74295 | 27618 ft | 387 kts | 227° |
| 2026-05-07 12:10 | 49.38816 | 17.71148 | 27792 ft | 388 kts | 227° |
| 2026-05-07 12:10 | 49.37084 | 17.67957 | 27968 ft | 389 kts | 227° |
| 2026-05-07 12:10 | 49.35365 | 17.64791 | 28154 ft | 390 kts | 227° |
| 2026-05-07 12:11 | 49.33632 | 17.61605 | 28416 ft | 388 kts | 227° |
| 2026-05-07 12:11 | 49.31908 | 17.58436 | 28700 ft | 387 kts | 227° |
| 2026-05-07 12:11 | 49.30207 | 17.55311 | 28974 ft | 386 kts | 227° |
| 2026-05-07 12:11 | 49.28485 | 17.52153 | 29241 ft | 384 kts | 227° |
| 2026-05-07 12:12 | 49.26769 | 17.49014 | 29483 ft | 384 kts | 227° |
| 2026-05-07 12:12 | 49.25075 | 17.45915 | 29712 ft | 383 kts | 227° |
| 2026-05-07 12:12 | 49.23383 | 17.42824 | 29918 ft | 383 kts | 227° |
| 2026-05-07 12:12 | 49.21666 | 17.39692 | 30122 ft | 383 kts | 227° |
| 2026-05-07 12:13 | 49.19952 | 17.36572 | 30293 ft | 384 kts | 227° |
| 2026-05-07 12:13 | 49.18243 | 17.33462 | 30438 ft | 385 kts | 226° |
| 2026-05-07 12:13 | 49.16510 | 17.30315 | 30590 ft | 386 kts | 226° |
| 2026-05-07 12:13 | 49.14791 | 17.27191 | 30799 ft | 385 kts | 226° |
| 2026-05-07 12:14 | 49.13084 | 17.24096 | 30987 ft | 385 kts | 227° |
| 2026-05-07 12:14 | 49.11357 | 17.20968 | 31150 ft | 386 kts | 227° |
| 2026-05-07 12:14 | 49.09636 | 17.17855 | 31305 ft | 387 kts | 227° |
| 2026-05-07 12:14 | 49.07912 | 17.14737 | 31457 ft | 387 kts | 227° |
| 2026-05-07 12:15 | 49.06171 | 17.11594 | 31620 ft | 387 kts | 227° |
| 2026-05-07 12:15 | 49.04454 | 17.08499 | 31762 ft | 388 kts | 227° |
| 2026-05-07 12:15 | 49.02713 | 17.05365 | 31903 ft | 388 kts | 227° |
| 2026-05-07 12:16 | 48.99219 | 16.99084 | 31930 ft | 389 kts | 227° |
| 2026-05-07 12:16 | 48.95730 | 16.92825 | 31924 ft | 388 kts | 227° |
| 2026-05-07 12:17 | 48.92245 | 16.86591 | 31927 ft | 389 kts | 226° |
| 2026-05-07 12:17 | 48.88733 | 16.80323 | 32003 ft | 395 kts | 226° |
| 2026-05-07 12:18 | 48.85131 | 16.73916 | 32115 ft | 400 kts | 226° |
| 2026-05-07 12:18 | 48.81544 | 16.67543 | 32345 ft | 401 kts | 226° |
| 2026-05-07 12:18 | 48.79738 | 16.64342 | 32518 ft | 400 kts | 227° |
| 2026-05-07 12:19 | 48.77930 | 16.61159 | 32671 ft | 399 kts | 226° |
| 2026-05-07 12:19 | 48.76057 | 16.58021 | 32833 ft | 398 kts | 225° |
| 2026-05-07 12:19 | 48.74209 | 16.54981 | 32986 ft | 398 kts | 225° |
| 2026-05-07 12:19 | 48.72343 | 16.51922 | 33134 ft | 397 kts | 225° |
| 2026-05-07 12:20 | 48.70468 | 16.48844 | 33265 ft | 397 kts | 225° |
| 2026-05-07 12:20 | 48.68597 | 16.45768 | 33400 ft | 397 kts | 225° |
| 2026-05-07 12:20 | 48.66753 | 16.42739 | 33541 ft | 396 kts | 225° |
| 2026-05-07 12:20 | 48.64881 | 16.39664 | 33683 ft | 395 kts | 225° |
| 2026-05-07 12:21 | 48.63050 | 16.36655 | 33904 ft | 392 kts | 225° |
| 2026-05-07 12:21 | 48.59378 | 16.30634 | 33925 ft | 389 kts | 224° |
| 2026-05-07 12:22 | 48.55722 | 16.24653 | 33928 ft | 389 kts | 224° |
| 2026-05-07 12:22 | 48.52060 | 16.18675 | 33938 ft | 388 kts | 225° |
| 2026-05-07 12:23 | 48.48403 | 16.12721 | 33939 ft | 389 kts | 224° |
| 2026-05-07 12:23 | 48.44745 | 16.06748 | 33942 ft | 389 kts | 225° |
| 2026-05-07 12:24 | 48.41367 | 16.00422 | 33936 ft | 390 kts | 231° |
| 2026-05-07 12:24 | 48.38384 | 15.93578 | 33943 ft | 391 kts | 235° |
| 2026-05-07 12:25 | 48.35577 | 15.86649 | 33945 ft | 391 kts | 235° |
| 2026-05-07 12:25 | 48.32747 | 15.79683 | 33942 ft | 391 kts | 235° |
| 2026-05-07 12:26 | 48.29928 | 15.72751 | 33942 ft | 391 kts | 235° |
| 2026-05-07 12:26 | 48.27101 | 15.65809 | 33938 ft | 391 kts | 235° |
| 2026-05-07 12:27 | 48.24274 | 15.58890 | 33951 ft | 391 kts | 235° |
| 2026-05-07 12:27 | 48.21445 | 15.51974 | 33952 ft | 391 kts | 235° |
| 2026-05-07 12:28 | 48.18601 | 15.45046 | 33950 ft | 390 kts | 236° |
| 2026-05-07 12:28 | 48.15777 | 15.38181 | 33946 ft | 390 kts | 235° |
| 2026-05-07 12:29 | 48.12937 | 15.31292 | 33958 ft | 390 kts | 234° |
| 2026-05-07 12:29 | 48.10099 | 15.24429 | 33944 ft | 389 kts | 234° |
| 2026-05-07 12:30 | 48.07252 | 15.17560 | 33950 ft | 390 kts | 235° |
| 2026-05-07 12:30 | 48.04391 | 15.10678 | 33946 ft | 391 kts | 235° |
| 2026-05-07 12:31 | 48.01541 | 15.03836 | 33957 ft | 390 kts | 235° |
| 2026-05-07 12:31 | 47.98663 | 14.96948 | 33958 ft | 390 kts | 235° |
| 2026-05-07 12:32 | 47.95800 | 14.90110 | 33958 ft | 391 kts | 235° |
| 2026-05-07 12:32 | 47.92934 | 14.83289 | 33961 ft | 391 kts | 235° |
| 2026-05-07 12:33 | 47.88602 | 14.73012 | 33960 ft | 391 kts | 235° |
| 2026-05-07 12:33 | 47.85709 | 14.66182 | 33958 ft | 391 kts | 235° |
| 2026-05-07 12:34 | 47.82816 | 14.59373 | 33939 ft | 391 kts | 235° |
| 2026-05-07 12:34 | 47.79926 | 14.52584 | 33955 ft | 391 kts | 236° |
| 2026-05-07 12:35 | 47.77022 | 14.45776 | 33953 ft | 392 kts | 235° |
| 2026-05-07 12:35 | 47.74118 | 14.38989 | 33960 ft | 392 kts | 236° |
| 2026-05-07 12:36 | 47.71182 | 14.32140 | 33953 ft | 392 kts | 235° |
| 2026-05-07 12:36 | 47.68268 | 14.25364 | 33953 ft | 392 kts | 235° |
| 2026-05-07 12:37 | 47.65328 | 14.18542 | 33946 ft | 393 kts | 235° |
| 2026-05-07 12:37 | 47.62395 | 14.11748 | 33949 ft | 393 kts | 235° |
| 2026-05-07 12:38 | 47.59467 | 14.04992 | 33952 ft | 393 kts | 235° |
| 2026-05-07 12:38 | 47.56513 | 13.98186 | 33955 ft | 393 kts | 235° |
| 2026-05-07 12:39 | 47.53561 | 13.91403 | 33951 ft | 394 kts | 235° |
| 2026-05-07 12:39 | 47.50596 | 13.84609 | 33948 ft | 394 kts | 235° |
| 2026-05-07 12:40 | 47.47648 | 13.77869 | 33946 ft | 394 kts | 236° |
| 2026-05-07 12:40 | 47.44656 | 13.71048 | 33944 ft | 394 kts | 236° |
| 2026-05-07 12:41 | 47.41685 | 13.64291 | 33942 ft | 395 kts | 236° |
| 2026-05-07 12:41 | 47.38710 | 13.57539 | 33943 ft | 396 kts | 236° |
| 2026-05-07 12:42 | 47.35715 | 13.50760 | 33958 ft | 396 kts | 236° |
| 2026-05-07 12:42 | 47.32697 | 13.43946 | 33962 ft | 396 kts | 236° |
| 2026-05-07 12:43 | 47.29697 | 13.37186 | 33951 ft | 396 kts | 236° |
| 2026-05-07 12:43 | 47.26675 | 13.30397 | 33945 ft | 397 kts | 235° |
| 2026-05-07 12:44 | 47.23671 | 13.23663 | 33947 ft | 397 kts | 236° |
| 2026-05-07 12:44 | 47.20651 | 13.16909 | 33936 ft | 396 kts | 236° |
| 2026-05-07 12:45 | 47.17623 | 13.10158 | 33942 ft | 396 kts | 236° |
| 2026-05-07 12:45 | 47.14600 | 13.03430 | 33953 ft | 397 kts | 236° |
| 2026-05-07 12:46 | 47.11558 | 12.96676 | 33949 ft | 397 kts | 236° |
| 2026-05-07 12:46 | 47.08519 | 12.89944 | 33950 ft | 397 kts | 236° |
| 2026-05-07 12:47 | 47.05474 | 12.83216 | 33948 ft | 398 kts | 236° |
| 2026-05-07 12:47 | 47.02416 | 12.76478 | 33950 ft | 398 kts | 236° |
| 2026-05-07 12:48 | 46.99337 | 12.69709 | 33951 ft | 399 kts | 236° |
| 2026-05-07 12:48 | 46.96282 | 12.63007 | 33966 ft | 399 kts | 236° |
| 2026-05-07 12:49 | 46.93194 | 12.56256 | 33995 ft | 399 kts | 236° |
| 2026-05-07 12:49 | 46.90137 | 12.49583 | 34016 ft | 398 kts | 236° |
| 2026-05-07 12:50 | 46.87058 | 12.42882 | 34022 ft | 397 kts | 237° |
| 2026-05-07 12:50 | 46.83976 | 12.36186 | 34014 ft | 397 kts | 237° |
| 2026-05-07 12:51 | 46.80888 | 12.29506 | 34012 ft | 398 kts | 236° |
| 2026-05-07 12:51 | 46.77611 | 12.23053 | 34006 ft | 398 kts | 233° |
| 2026-05-07 12:52 | 46.74281 | 12.16643 | 34005 ft | 398 kts | 233° |
| 2026-05-07 12:52 | 46.70941 | 12.10229 | 33999 ft | 398 kts | 233° |
| 2026-05-07 12:53 | 46.67606 | 12.03842 | 34006 ft | 398 kts | 233° |
| 2026-05-07 12:53 | 46.64255 | 11.97440 | 34005 ft | 398 kts | 233° |
| 2026-05-07 12:54 | 46.60896 | 11.91040 | 34003 ft | 398 kts | 233° |
| 2026-05-07 12:54 | 46.57556 | 11.84693 | 33996 ft | 398 kts | 234° |
| 2026-05-07 12:55 | 46.54192 | 11.78311 | 33988 ft | 398 kts | 234° |
| 2026-05-07 12:55 | 46.50844 | 11.71976 | 33980 ft | 397 kts | 234° |
| 2026-05-07 12:56 | 46.47496 | 11.65654 | 33990 ft | 397 kts | 234° |
| 2026-05-07 12:56 | 46.44120 | 11.59295 | 33991 ft | 397 kts | 234° |
| 2026-05-07 12:57 | 46.40761 | 11.52978 | 33992 ft | 397 kts | 234° |
| 2026-05-07 12:57 | 46.37410 | 11.46695 | 33990 ft | 397 kts | 234° |
| 2026-05-07 12:58 | 46.34048 | 11.40403 | 33989 ft | 397 kts | 234° |
| 2026-05-07 12:58 | 46.30671 | 11.34102 | 33984 ft | 397 kts | 233° |
| 2026-05-07 12:59 | 46.27298 | 11.27818 | 33980 ft | 397 kts | 234° |
| 2026-05-07 12:59 | 46.23906 | 11.21514 | 33975 ft | 397 kts | 234° |
| 2026-05-07 13:00 | 46.20531 | 11.15255 | 33975 ft | 398 kts | 234° |
| 2026-05-07 13:00 | 46.17133 | 11.08967 | 34020 ft | 403 kts | 234° |
| 2026-05-07 13:01 | 46.13650 | 11.02536 | 34077 ft | 408 kts | 234° |
| 2026-05-07 13:01 | 46.10176 | 10.96137 | 34264 ft | 409 kts | 234° |
| 2026-05-07 13:02 | 46.08413 | 10.92896 | 34385 ft | 408 kts | 234° |
| 2026-05-07 13:02 | 46.06685 | 10.89720 | 34503 ft | 408 kts | 234° |
| 2026-05-07 13:02 | 46.04935 | 10.86512 | 34614 ft | 408 kts | 234° |
| 2026-05-07 13:02 | 46.03183 | 10.83302 | 34718 ft | 408 kts | 234° |
| 2026-05-07 13:03 | 45.99684 | 10.76901 | 34912 ft | 408 kts | 234° |
| 2026-05-07 13:03 | 45.96183 | 10.70514 | 34948 ft | 408 kts | 234° |
| 2026-05-07 13:04 | 45.92666 | 10.64110 | 34966 ft | 408 kts | 234° |
| 2026-05-07 13:04 | 45.89160 | 10.57742 | 34973 ft | 407 kts | 234° |
| 2026-05-07 13:05 | 45.85656 | 10.51391 | 34978 ft | 407 kts | 234° |
| 2026-05-07 13:05 | 45.82143 | 10.45037 | 34979 ft | 407 kts | 234° |
| 2026-05-07 13:06 | 45.78646 | 10.38728 | 34986 ft | 406 kts | 234° |
| 2026-05-07 13:06 | 45.75136 | 10.32412 | 34981 ft | 406 kts | 233° |
| 2026-05-07 13:07 | 45.71641 | 10.26136 | 34975 ft | 405 kts | 234° |
| 2026-05-07 13:07 | 45.68121 | 10.19824 | 34980 ft | 406 kts | 234° |
| 2026-05-07 13:08 | 45.64617 | 10.13558 | 34982 ft | 405 kts | 234° |
| 2026-05-07 13:08 | 45.61112 | 10.07304 | 34978 ft | 405 kts | 234° |
| 2026-05-07 13:09 | 45.57610 | 10.01070 | 34985 ft | 404 kts | 234° |
| 2026-05-07 13:09 | 45.54078 | 9.94796 | 34968 ft | 405 kts | 234° |
| 2026-05-07 13:10 | 45.50571 | 9.88580 | 34961 ft | 404 kts | 234° |
| 2026-05-07 13:10 | 45.48801 | 9.85449 | 34852 ft | 404 kts | 234° |
| 2026-05-07 13:10 | 45.47055 | 9.82362 | 34875 ft | 404 kts | 234° |
| 2026-05-07 13:11 | 45.43527 | 9.76135 | 34924 ft | 404 kts | 234° |
| 2026-05-07 13:11 | 45.41777 | 9.73050 | 35053 ft | 404 kts | 234° |
| 2026-05-07 13:11 | 45.40019 | 9.69958 | 34935 ft | 404 kts | 234° |
| 2026-05-07 13:12 | 45.36497 | 9.63775 | 34951 ft | 403 kts | 234° |
| 2026-05-07 13:12 | 45.32976 | 9.57601 | 34969 ft | 403 kts | 234° |
| 2026-05-07 13:13 | 45.29446 | 9.51426 | 34970 ft | 403 kts | 234° |
| 2026-05-07 13:13 | 45.25929 | 9.45286 | 34953 ft | 402 kts | 234° |
| 2026-05-07 13:14 | 45.22417 | 9.39170 | 34951 ft | 402 kts | 234° |
| 2026-05-07 13:14 | 45.18883 | 9.33030 | 34953 ft | 402 kts | 233° |
| 2026-05-07 13:15 | 45.15367 | 9.26932 | 34945 ft | 401 kts | 233° |
| 2026-05-07 13:15 | 45.11845 | 9.20839 | 34949 ft | 401 kts | 233° |
| 2026-05-07 13:16 | 45.08312 | 9.14737 | 34945 ft | 400 kts | 234° |
| 2026-05-07 13:16 | 45.04807 | 9.08700 | 34941 ft | 400 kts | 234° |
| 2026-05-07 13:17 | 45.01266 | 9.02610 | 34947 ft | 400 kts | 233° |
| 2026-05-07 13:17 | 44.97742 | 8.96565 | 34943 ft | 399 kts | 234° |
| 2026-05-07 13:18 | 44.94239 | 8.90567 | 34942 ft | 399 kts | 233° |
| 2026-05-07 13:18 | 44.90715 | 8.84547 | 34952 ft | 399 kts | 234° |
| 2026-05-07 13:19 | 44.87172 | 8.78508 | 34949 ft | 399 kts | 233° |
| 2026-05-07 13:19 | 44.83661 | 8.72535 | 34938 ft | 399 kts | 233° |
| 2026-05-07 13:20 | 44.80110 | 8.66508 | 34939 ft | 399 kts | 233° |
| 2026-05-07 13:20 | 44.76579 | 8.60525 | 34946 ft | 398 kts | 233° |
| 2026-05-07 13:21 | 44.73056 | 8.54574 | 34948 ft | 399 kts | 233° |
| 2026-05-07 13:21 | 44.69508 | 8.48591 | 34941 ft | 399 kts | 233° |
| 2026-05-07 13:22 | 44.65953 | 8.42603 | 34954 ft | 398 kts | 233° |
| 2026-05-07 13:22 | 44.62421 | 8.36673 | 34949 ft | 398 kts | 233° |
| 2026-05-07 13:23 | 44.58873 | 8.30727 | 34955 ft | 398 kts | 233° |
| 2026-05-07 13:23 | 44.55311 | 8.24767 | 34961 ft | 398 kts | 233° |
| 2026-05-07 13:24 | 44.51777 | 8.18869 | 34965 ft | 398 kts | 233° |
| 2026-05-07 13:24 | 44.48222 | 8.12946 | 34962 ft | 398 kts | 233° |
| 2026-05-07 13:25 | 44.44677 | 8.07055 | 34959 ft | 398 kts | 233° |
| 2026-05-07 13:25 | 44.41104 | 8.01124 | 34963 ft | 398 kts | 233° |
| 2026-05-07 13:26 | 44.37546 | 7.95235 | 34965 ft | 398 kts | 233° |
| 2026-05-07 13:26 | 44.33991 | 7.89362 | 34967 ft | 397 kts | 233° |
| 2026-05-07 13:27 | 44.30427 | 7.83487 | 34966 ft | 397 kts | 232° |
| 2026-05-07 13:27 | 44.26746 | 7.77794 | 34970 ft | 399 kts | 229° |
| 2026-05-07 13:28 | 44.22677 | 7.72565 | 34971 ft | 400 kts | 225° |
| 2026-05-07 13:28 | 44.18535 | 7.67434 | 34971 ft | 400 kts | 225° |
| 2026-05-07 13:29 | 44.14462 | 7.62147 | 34969 ft | 399 kts | 229° |
| 2026-05-07 13:29 | 44.10786 | 7.56463 | 34969 ft | 398 kts | 232° |
| 2026-05-07 13:30 | 44.07156 | 7.50671 | 34973 ft | 398 kts | 232° |
| 2026-05-07 13:30 | 44.03511 | 7.44862 | 34976 ft | 398 kts | 232° |
| 2026-05-07 13:31 | 43.99874 | 7.39072 | 34978 ft | 398 kts | 232° |
| 2026-05-07 13:31 | 43.96248 | 7.33307 | 34983 ft | 398 kts | 231° |
| 2026-05-07 13:32 | 43.92610 | 7.27531 | 34988 ft | 399 kts | 231° |
| 2026-05-07 13:32 | 43.88956 | 7.21743 | 34986 ft | 398 kts | 231° |
| 2026-05-07 13:33 | 43.85315 | 7.15984 | 34981 ft | 397 kts | 231° |
| 2026-05-07 13:33 | 43.81682 | 7.10253 | 34996 ft | 397 kts | 231° |
| 2026-05-07 13:34 | 43.76317 | 7.01605 | 34983 ft | 396 kts | 234° |
| 2026-05-07 13:35 | 43.73158 | 6.95395 | 34972 ft | 395 kts | 239° |
| 2026-05-07 13:35 | 43.70464 | 6.88807 | 34970 ft | 395 kts | 244° |
| 2026-05-07 13:36 | 43.68243 | 6.81896 | 34969 ft | 395 kts | 248° |
| 2026-05-07 13:36 | 43.66170 | 6.74904 | 34970 ft | 394 kts | 248° |
| 2026-05-07 13:37 | 43.64102 | 6.67926 | 34970 ft | 394 kts | 248° |
| 2026-05-07 13:37 | 43.62035 | 6.60962 | 34964 ft | 394 kts | 248° |
| 2026-05-07 13:38 | 43.59956 | 6.53974 | 34954 ft | 394 kts | 248° |
| 2026-05-07 13:38 | 43.57880 | 6.47010 | 34947 ft | 394 kts | 248° |
| 2026-05-07 13:39 | 43.55806 | 6.40071 | 34944 ft | 394 kts | 248° |
| 2026-05-07 13:39 | 43.53721 | 6.33112 | 34944 ft | 394 kts | 247° |
| 2026-05-07 13:40 | 43.51624 | 6.26131 | 34944 ft | 394 kts | 247° |
| 2026-05-07 13:40 | 43.49541 | 6.19218 | 34944 ft | 393 kts | 247° |
| 2026-05-07 13:41 | 43.47450 | 6.12303 | 34945 ft | 393 kts | 247° |
| 2026-05-07 13:41 | 43.45345 | 6.05354 | 34948 ft | 393 kts | 247° |
| 2026-05-07 13:42 | 43.43258 | 5.98490 | 34951 ft | 392 kts | 247° |
| 2026-05-07 13:42 | 43.41149 | 5.91573 | 34953 ft | 392 kts | 247° |
| 2026-05-07 13:43 | 43.39039 | 5.84667 | 34955 ft | 393 kts | 247° |
| 2026-05-07 13:43 | 43.36927 | 5.77776 | 34955 ft | 393 kts | 247° |
| 2026-05-07 13:44 | 43.34805 | 5.70869 | 34953 ft | 392 kts | 247° |
| 2026-05-07 13:44 | 43.32691 | 5.64006 | 34953 ft | 392 kts | 247° |
| 2026-05-07 13:45 | 43.30572 | 5.57148 | 34952 ft | 392 kts | 247° |
| 2026-05-07 13:45 | 43.28440 | 5.50266 | 34951 ft | 392 kts | 246° |
| 2026-05-07 13:46 | 43.26324 | 5.43449 | 34952 ft | 392 kts | 246° |
| 2026-05-07 13:46 | 43.24178 | 5.36563 | 34948 ft | 392 kts | 247° |
| 2026-05-07 13:47 | 43.22041 | 5.29721 | 34949 ft | 391 kts | 246° |
| 2026-05-07 13:47 | 43.19912 | 5.22913 | 34945 ft | 391 kts | 246° |
| 2026-05-07 13:48 | 43.17764 | 5.16069 | 34947 ft | 391 kts | 246° |
| 2026-05-07 13:48 | 43.15623 | 5.09261 | 34944 ft | 391 kts | 245° |
| 2026-05-07 13:49 | 43.13469 | 5.02439 | 34946 ft | 391 kts | 246° |
| 2026-05-07 13:49 | 43.11317 | 4.95638 | 34943 ft | 391 kts | 246° |
| 2026-05-07 13:50 | 43.09147 | 4.88842 | 34944 ft | 390 kts | 244° |
| 2026-05-07 13:50 | 43.06444 | 4.82410 | 34950 ft | 390 kts | 236° |
| 2026-05-07 13:51 | 43.03024 | 4.76644 | 34947 ft | 391 kts | 228° |
| 2026-05-07 13:51 | 42.98973 | 4.71692 | 34947 ft | 393 kts | 220° |
| 2026-05-07 13:52 | 42.94505 | 4.67433 | 34952 ft | 393 kts | 217° |
| 2026-05-07 13:52 | 42.90023 | 4.63254 | 34953 ft | 392 kts | 217° |
| 2026-05-07 13:53 | 42.85520 | 4.59076 | 34953 ft | 392 kts | 217° |
| 2026-05-07 13:53 | 42.81025 | 4.54915 | 34954 ft | 391 kts | 217° |
| 2026-05-07 13:54 | 42.76545 | 4.50779 | 34953 ft | 391 kts | 217° |
| 2026-05-07 13:54 | 42.72023 | 4.46611 | 34954 ft | 391 kts | 217° |
| 2026-05-07 13:55 | 42.67551 | 4.42497 | 34952 ft | 390 kts | 217° |
| 2026-05-07 13:55 | 42.63063 | 4.38377 | 34953 ft | 390 kts | 217° |
| 2026-05-07 13:56 | 42.58569 | 4.34256 | 34955 ft | 390 kts | 217° |
| 2026-05-07 13:56 | 42.54080 | 4.30151 | 34953 ft | 389 kts | 216° |
| 2026-05-07 13:57 | 42.49632 | 4.26088 | 34947 ft | 389 kts | 216° |
| 2026-05-07 13:57 | 42.45139 | 4.21992 | 34941 ft | 388 kts | 216° |
| 2026-05-07 13:58 | 42.40683 | 4.17935 | 34941 ft | 388 kts | 216° |
| 2026-05-07 13:58 | 42.36196 | 4.13857 | 34945 ft | 387 kts | 216° |
| 2026-05-07 13:59 | 42.31747 | 4.09822 | 34947 ft | 387 kts | 216° |
| 2026-05-07 13:59 | 42.27340 | 4.05717 | 34945 ft | 385 kts | 219° |
| 2026-05-07 14:00 | 42.23377 | 4.00876 | 34949 ft | 384 kts | 227° |
| 2026-05-07 14:00 | 42.20042 | 3.95299 | 34949 ft | 384 kts | 235° |
| 2026-05-07 14:01 | 42.17382 | 3.89065 | 34947 ft | 386 kts | 242° |
| 2026-05-07 14:01 | 42.15185 | 3.82482 | 34946 ft | 385 kts | 244° |
| 2026-05-07 14:02 | 42.13033 | 3.75952 | 34946 ft | 385 kts | 244° |
| 2026-05-07 14:02 | 42.10865 | 3.69355 | 34945 ft | 385 kts | 244° |
| 2026-05-07 14:03 | 42.08693 | 3.62758 | 34944 ft | 386 kts | 244° |
| 2026-05-07 14:03 | 42.06536 | 3.56231 | 34943 ft | 386 kts | 244° |
| 2026-05-07 14:04 | 42.04347 | 3.49615 | 34944 ft | 386 kts | 244° |
| 2026-05-07 14:04 | 42.02172 | 3.43070 | 34942 ft | 386 kts | 243° |
| 2026-05-07 14:05 | 41.99996 | 3.36535 | 34941 ft | 386 kts | 243° |
| 2026-05-07 14:05 | 41.97803 | 3.29968 | 34940 ft | 386 kts | 243° |
| 2026-05-07 14:06 | 41.95444 | 3.23517 | 34937 ft | 385 kts | 238° |
| 2026-05-07 14:06 | 41.92638 | 3.17416 | 34939 ft | 385 kts | 234° |
| 2026-05-07 14:07 | 41.89447 | 3.11670 | 34938 ft | 385 kts | 231° |
| 2026-05-07 14:07 | 41.86200 | 3.05972 | 34931 ft | 385 kts | 231° |
| 2026-05-07 14:08 | 41.82961 | 3.00319 | 34931 ft | 385 kts | 231° |
| 2026-05-07 14:08 | 41.79691 | 2.94631 | 34929 ft | 384 kts | 231° |
| 2026-05-07 14:09 | 41.76452 | 2.89006 | 34934 ft | 384 kts | 231° |
| 2026-05-07 14:09 | 41.73615 | 2.84094 | 34934 ft | 384 kts | 231° |
| 2026-05-07 14:10 | 41.70348 | 2.78452 | 34933 ft | 384 kts | 231° |
| 2026-05-07 14:10 | 41.67048 | 2.72825 | 34937 ft | 384 kts | 230° |
| 2026-05-07 14:11 | 41.63690 | 2.67339 | 34938 ft | 384 kts | 230° |
| 2026-05-07 14:11 | 41.60322 | 2.61850 | 34938 ft | 384 kts | 230° |
| 2026-05-07 14:12 | 41.56948 | 2.56351 | 34939 ft | 383 kts | 230° |
| 2026-05-07 14:12 | 41.53568 | 2.50848 | 34933 ft | 383 kts | 230° |
| 2026-05-07 14:13 | 41.50197 | 2.45369 | 34937 ft | 383 kts | 229° |
| 2026-05-07 14:13 | 41.46827 | 2.39896 | 34941 ft | 382 kts | 229° |
| 2026-05-07 14:14 | 41.43475 | 2.34468 | 34945 ft | 382 kts | 229° |
| 2026-05-07 14:14 | 41.40107 | 2.29022 | 34949 ft | 382 kts | 229° |
| 2026-05-07 14:15 | 41.36719 | 2.23549 | 34953 ft | 382 kts | 229° |
| 2026-05-07 14:15 | 41.33349 | 2.18121 | 34952 ft | 381 kts | 229° |
| 2026-05-07 14:16 | 41.29990 | 2.12714 | 34951 ft | 382 kts | 229° |
| 2026-05-07 14:16 | 41.26626 | 2.07316 | 34949 ft | 380 kts | 229° |
| 2026-05-07 14:17 | 41.23248 | 2.01902 | 34946 ft | 380 kts | 229° |
| 2026-05-07 14:17 | 41.19893 | 1.96529 | 34939 ft | 380 kts | 229° |
| 2026-05-07 14:18 | 41.16527 | 1.91152 | 34933 ft | 380 kts | 229° |
| 2026-05-07 14:18 | 41.13145 | 1.85760 | 34935 ft | 380 kts | 228° |
| 2026-05-07 14:19 | 41.09759 | 1.80374 | 34928 ft | 380 kts | 228° |
| 2026-05-07 14:19 | 41.06380 | 1.75007 | 34929 ft | 381 kts | 229° |
| 2026-05-07 14:20 | 41.02875 | 1.69738 | 34924 ft | 381 kts | 226° |
| 2026-05-07 14:20 | 40.99340 | 1.64549 | 34927 ft | 381 kts | 226° |
| 2026-05-07 14:21 | 40.95809 | 1.59382 | 34927 ft | 381 kts | 226° |
| 2026-05-07 14:21 | 40.92260 | 1.54205 | 34929 ft | 381 kts | 226° |
| 2026-05-07 14:22 | 40.88694 | 1.49011 | 34930 ft | 382 kts | 226° |
| 2026-05-07 14:22 | 40.85127 | 1.43825 | 34927 ft | 382 kts | 226° |
| 2026-05-07 14:23 | 40.81563 | 1.38648 | 34928 ft | 382 kts | 226° |
| 2026-05-07 14:23 | 40.78004 | 1.33492 | 34926 ft | 382 kts | 225° |
| 2026-05-07 14:24 | 40.74434 | 1.28330 | 34924 ft | 382 kts | 225° |
| 2026-05-07 14:24 | 40.70864 | 1.23179 | 34922 ft | 383 kts | 225° |
| 2026-05-07 14:25 | 40.67276 | 1.18003 | 34923 ft | 382 kts | 225° |
| 2026-05-07 14:25 | 40.63697 | 1.12845 | 34920 ft | 382 kts | 225° |
| 2026-05-07 14:26 | 40.60124 | 1.07707 | 34921 ft | 383 kts | 226° |
| 2026-05-07 14:26 | 40.56529 | 1.02545 | 34919 ft | 383 kts | 225° |
| 2026-05-07 14:27 | 40.52933 | 0.97394 | 34911 ft | 384 kts | 225° |
| 2026-05-07 14:27 | 40.49321 | 0.92237 | 34917 ft | 385 kts | 225° |
| 2026-05-07 14:28 | 40.45711 | 0.87088 | 34913 ft | 385 kts | 225° |
| 2026-05-07 14:28 | 40.42087 | 0.81925 | 34904 ft | 385 kts | 225° |
| 2026-05-07 14:29 | 40.38466 | 0.76780 | 34902 ft | 385 kts | 225° |
| 2026-05-07 14:29 | 40.34815 | 0.71598 | 34902 ft | 385 kts | 225° |
| 2026-05-07 14:30 | 40.31206 | 0.66485 | 34904 ft | 385 kts | 225° |
| 2026-05-07 14:30 | 40.27565 | 0.61336 | 34895 ft | 385 kts | 225° |
| 2026-05-07 14:31 | 40.23942 | 0.56221 | 34902 ft | 385 kts | 225° |
| 2026-05-07 14:31 | 40.20312 | 0.51107 | 34894 ft | 385 kts | 225° |
| 2026-05-07 14:32 | 40.16684 | 0.46001 | 34903 ft | 385 kts | 225° |
| 2026-05-07 14:32 | 40.13039 | 0.40880 | 34904 ft | 385 kts | 225° |
| 2026-05-07 14:33 | 40.09390 | 0.35765 | 34896 ft | 386 kts | 225° |
| 2026-05-07 14:33 | 40.05725 | 0.30635 | 34881 ft | 386 kts | 225° |
| 2026-05-07 14:34 | 40.02060 | 0.25513 | 34900 ft | 387 kts | 225° |
| 2026-05-07 14:34 | 39.98394 | 0.20398 | 34901 ft | 386 kts | 225° |
| 2026-05-07 14:35 | 39.94729 | 0.15293 | 34882 ft | 387 kts | 225° |
| 2026-05-07 14:35 | 39.91051 | 0.10179 | 34898 ft | 387 kts | 225° |
| 2026-05-07 14:36 | 39.87396 | 0.05103 | 34905 ft | 387 kts | 225° |
| 2026-05-07 14:36 | 39.83717 | 0.00005 | 34901 ft | 386 kts | 225° |
| 2026-05-07 14:37 | 39.80050 | -0.05065 | 34883 ft | 387 kts | 225° |
| 2026-05-07 14:37 | 39.74524 | -0.12698 | 34885 ft | 388 kts | 225° |
| 2026-05-07 14:38 | 39.70811 | -0.17809 | 34879 ft | 389 kts | 226° |
| 2026-05-07 14:38 | 39.67119 | -0.22891 | 34885 ft | 389 kts | 226° |
| 2026-05-07 14:39 | 39.63390 | -0.28013 | 34885 ft | 390 kts | 226° |
| 2026-05-07 14:39 | 39.59683 | -0.33095 | 34898 ft | 391 kts | 226° |
| 2026-05-07 14:40 | 39.55956 | -0.38196 | 34909 ft | 391 kts | 226° |
| 2026-05-07 14:40 | 39.52211 | -0.43312 | 34903 ft | 392 kts | 227° |
| 2026-05-07 14:41 | 39.48542 | -0.48503 | 34900 ft | 392 kts | 230° |
| 2026-05-07 14:41 | 39.45195 | -0.54068 | 34900 ft | 392 kts | 233° |
| 2026-05-07 14:42 | 39.41917 | -0.59647 | 34895 ft | 393 kts | 233° |
| 2026-05-07 14:42 | 39.38613 | -0.65278 | 34916 ft | 393 kts | 232° |
| 2026-05-07 14:43 | 39.35322 | -0.70874 | 34894 ft | 394 kts | 232° |
| 2026-05-07 14:43 | 39.31993 | -0.76526 | 34898 ft | 394 kts | 233° |
| 2026-05-07 14:44 | 39.28696 | -0.82117 | 34899 ft | 394 kts | 233° |
| 2026-05-07 14:44 | 39.25363 | -0.87756 | 34898 ft | 395 kts | 233° |
| 2026-05-07 14:45 | 39.22050 | -0.93352 | 34893 ft | 395 kts | 233° |
| 2026-05-07 14:45 | 39.19148 | -0.98244 | 34895 ft | 396 kts | 233° |
| 2026-05-07 14:46 | 39.15803 | -1.03880 | 34903 ft | 397 kts | 233° |
| 2026-05-07 14:46 | 39.12459 | -1.09499 | 34903 ft | 396 kts | 234° |
| 2026-05-07 14:47 | 39.09110 | -1.15116 | 34904 ft | 396 kts | 234° |
| 2026-05-07 14:47 | 39.05753 | -1.20739 | 34902 ft | 397 kts | 234° |
| 2026-05-07 14:48 | 39.02411 | -1.26326 | 34906 ft | 397 kts | 234° |
| 2026-05-07 14:48 | 38.99049 | -1.31939 | 34911 ft | 397 kts | 235° |
| 2026-05-07 14:49 | 38.95666 | -1.37570 | 34916 ft | 397 kts | 235° |
| 2026-05-07 14:49 | 38.92305 | -1.43158 | 34902 ft | 398 kts | 235° |
| 2026-05-07 14:50 | 38.88931 | -1.48757 | 34906 ft | 398 kts | 236° |
| 2026-05-07 14:50 | 38.85560 | -1.54351 | 34931 ft | 396 kts | 236° |
| 2026-05-07 14:51 | 38.82178 | -1.59947 | 34909 ft | 397 kts | 236° |
| 2026-05-07 14:51 | 38.78793 | -1.65535 | 34911 ft | 399 kts | 235° |
| 2026-05-07 14:52 | 38.75397 | -1.71136 | 34925 ft | 399 kts | 236° |
| 2026-05-07 14:52 | 38.71981 | -1.76755 | 34916 ft | 400 kts | 236° |
| 2026-05-07 14:53 | 38.68570 | -1.82359 | 34919 ft | 401 kts | 236° |
| 2026-05-07 14:53 | 38.65147 | -1.87974 | 34890 ft | 402 kts | 236° |
| 2026-05-07 14:54 | 38.61725 | -1.93576 | 34924 ft | 401 kts | 236° |
| 2026-05-07 14:54 | 38.58297 | -1.99181 | 34876 ft | 401 kts | 237° |
| 2026-05-07 14:55 | 38.54865 | -2.04777 | 34918 ft | 400 kts | 237° |
| 2026-05-07 14:55 | 38.51468 | -2.10313 | 34929 ft | 399 kts | 237° |
| 2026-05-07 14:56 | 38.48041 | -2.15886 | 34925 ft | 399 kts | 237° |
| 2026-05-07 14:56 | 38.44603 | -2.21463 | 34925 ft | 401 kts | 237° |
| 2026-05-07 14:57 | 38.41167 | -2.27038 | 34909 ft | 400 kts | 237° |
| 2026-05-07 14:57 | 38.37736 | -2.32579 | 34915 ft | 400 kts | 237° |
| 2026-05-07 14:58 | 38.34058 | -2.37965 | 34908 ft | 403 kts | 233° |
| 2026-05-07 14:58 | 38.30239 | -2.43102 | 34932 ft | 403 kts | 233° |
| 2026-05-07 14:59 | 38.26383 | -2.48283 | 34912 ft | 402 kts | 233° |
| 2026-05-07 14:59 | 38.22522 | -2.53459 | 34941 ft | 402 kts | 233° |
| 2026-05-07 15:00 | 38.18690 | -2.58585 | 34926 ft | 401 kts | 234° |
| 2026-05-07 15:00 | 38.14874 | -2.63686 | 34941 ft | 400 kts | 234° |
| 2026-05-07 15:01 | 38.11034 | -2.68805 | 34912 ft | 401 kts | 233° |
| 2026-05-07 15:01 | 38.07180 | -2.73943 | 34925 ft | 402 kts | 233° |
| 2026-05-07 15:02 | 38.03344 | -2.79036 | 34974 ft | 401 kts | 234° |
| 2026-05-07 15:02 | 37.99504 | -2.84133 | 34918 ft | 400 kts | 234° |
| 2026-05-07 15:03 | 37.95648 | -2.89245 | 34939 ft | 400 kts | 234° |
| 2026-05-07 15:03 | 37.91812 | -2.94319 | 34916 ft | 400 kts | 234° |
| 2026-05-07 15:04 | 37.87989 | -2.99370 | 34913 ft | 399 kts | 234° |
| 2026-05-07 15:04 | 37.84130 | -3.04454 | 34924 ft | 399 kts | 234° |
| 2026-05-07 15:05 | 37.80301 | -3.09496 | 34911 ft | 398 kts | 234° |
| 2026-05-07 15:05 | 37.76457 | -3.14550 | 34910 ft | 400 kts | 235° |
| 2026-05-07 15:06 | 37.72610 | -3.19599 | 34911 ft | 399 kts | 234° |
| 2026-05-07 15:06 | 37.68773 | -3.24625 | 34912 ft | 399 kts | 235° |
| 2026-05-07 15:07 | 37.64941 | -3.29635 | 34912 ft | 400 kts | 234° |
| 2026-05-07 15:07 | 37.61059 | -3.34704 | 34905 ft | 401 kts | 234° |
| 2026-05-07 15:08 | 37.57184 | -3.39760 | 34912 ft | 402 kts | 234° |
| 2026-05-07 15:08 | 37.53305 | -3.44810 | 34909 ft | 402 kts | 234° |
| 2026-05-07 15:09 | 37.49440 | -3.49832 | 34916 ft | 402 kts | 234° |
| 2026-05-07 15:09 | 37.45561 | -3.54864 | 34910 ft | 401 kts | 234° |
| 2026-05-07 15:10 | 37.41671 | -3.59903 | 34906 ft | 401 kts | 234° |
| 2026-05-07 15:10 | 37.37378 | -3.65456 | 34920 ft | 402 kts | 234° |
| 2026-05-07 15:11 | 37.33477 | -3.70494 | 34927 ft | 402 kts | 234° |
| 2026-05-07 15:11 | 37.29565 | -3.75535 | 34921 ft | 404 kts | 234° |
| 2026-05-07 15:12 | 37.25677 | -3.80542 | 34914 ft | 402 kts | 234° |
| 2026-05-07 15:12 | 37.21765 | -3.85570 | 34913 ft | 403 kts | 234° |
| 2026-05-07 15:13 | 37.17866 | -3.90573 | 34916 ft | 403 kts | 233° |
| 2026-05-07 15:13 | 37.13943 | -3.95596 | 34921 ft | 403 kts | 234° |
| 2026-05-07 15:14 | 37.10017 | -4.00617 | 34925 ft | 403 kts | 234° |
| 2026-05-07 15:14 | 37.06110 | -4.05609 | 34926 ft | 403 kts | 233° |
| 2026-05-07 15:15 | 37.02165 | -4.10638 | 34911 ft | 404 kts | 233° |
| 2026-05-07 15:15 | 36.98248 | -4.15625 | 34904 ft | 403 kts | 233° |
| 2026-05-07 15:16 | 36.94337 | -4.20596 | 34905 ft | 402 kts | 233° |
| 2026-05-07 15:16 | 36.90442 | -4.25538 | 34898 ft | 401 kts | 233° |
| 2026-05-07 15:17 | 36.86562 | -4.30559 | 34893 ft | 399 kts | 236° |
| 2026-05-07 15:17 | 36.83178 | -4.35966 | 34889 ft | 393 kts | 243° |
| 2026-05-07 15:18 | 36.80407 | -4.41772 | 34881 ft | 387 kts | 249° |
| 2026-05-07 15:18 | 36.78265 | -4.47870 | 34874 ft | 383 kts | 255° |
| 2026-05-07 15:19 | 36.76436 | -4.54098 | 34874 ft | 382 kts | 255° |
| 2026-05-07 15:19 | 36.74617 | -4.60303 | 34874 ft | 382 kts | 255° |
| 2026-05-07 15:20 | 36.72801 | -4.66489 | 34873 ft | 383 kts | 255° |
| 2026-05-07 15:20 | 36.70977 | -4.72705 | 34869 ft | 383 kts | 254° |
| 2026-05-07 15:21 | 36.69144 | -4.78935 | 34876 ft | 383 kts | 254° |
| 2026-05-07 15:21 | 36.67320 | -4.85125 | 34882 ft | 383 kts | 254° |
| 2026-05-07 15:22 | 36.65477 | -4.91371 | 34887 ft | 383 kts | 254° |
| 2026-05-07 15:22 | 36.63638 | -4.97581 | 34883 ft | 384 kts | 254° |
| 2026-05-07 15:23 | 36.61793 | -5.03802 | 34884 ft | 385 kts | 254° |
| 2026-05-07 15:23 | 36.59940 | -5.10025 | 34885 ft | 386 kts | 254° |
| 2026-05-07 15:24 | 36.58077 | -5.16276 | 34885 ft | 386 kts | 254° |
| 2026-05-07 15:24 | 36.56213 | -5.22518 | 34890 ft | 386 kts | 254° |
| 2026-05-07 15:25 | 36.54340 | -5.28773 | 34891 ft | 386 kts | 253° |
| 2026-05-07 15:25 | 36.52479 | -5.34970 | 34890 ft | 386 kts | 253° |
| 2026-05-07 15:26 | 36.50429 | -5.41144 | 34893 ft | 389 kts | 250° |
| 2026-05-07 15:26 | 36.47883 | -5.47080 | 34889 ft | 392 kts | 245° |
| 2026-05-07 15:27 | 36.45131 | -5.52930 | 34888 ft | 392 kts | 245° |
| 2026-05-07 15:27 | 36.42385 | -5.58756 | 34890 ft | 392 kts | 245° |
| 2026-05-07 15:28 | 36.39623 | -5.64594 | 34887 ft | 393 kts | 245° |
| 2026-05-07 15:28 | 36.36868 | -5.70400 | 34885 ft | 393 kts | 244° |
| 2026-05-07 15:29 | 36.34089 | -5.76249 | 34881 ft | 393 kts | 244° |
| 2026-05-07 15:29 | 36.31322 | -5.82061 | 34882 ft | 394 kts | 244° |
| 2026-05-07 15:30 | 36.28548 | -5.87878 | 34882 ft | 393 kts | 244° |
| 2026-05-07 15:30 | 36.25766 | -5.93703 | 34882 ft | 393 kts | 244° |
| 2026-05-07 15:31 | 36.22791 | -5.99348 | 34882 ft | 398 kts | 239° |
| 2026-05-07 15:31 | 36.19453 | -6.04826 | 34880 ft | 399 kts | 238° |
| 2026-05-07 15:32 | 36.16098 | -6.10299 | 34883 ft | 398 kts | 238° |
| 2026-05-07 15:32 | 36.12770 | -6.15713 | 34880 ft | 397 kts | 238° |
| 2026-05-07 15:33 | 36.09435 | -6.21130 | 34884 ft | 397 kts | 238° |
| 2026-05-07 15:33 | 36.06089 | -6.26551 | 34885 ft | 398 kts | 238° |
| 2026-05-07 15:34 | 36.02730 | -6.31991 | 34884 ft | 398 kts | 238° |
| 2026-05-07 15:34 | 35.99376 | -6.37408 | 34885 ft | 398 kts | 238° |
| 2026-05-07 15:35 | 35.96024 | -6.42814 | 34886 ft | 398 kts | 238° |
| 2026-05-07 15:35 | 35.92677 | -6.48204 | 34876 ft | 398 kts | 238° |
| 2026-05-07 15:36 | 35.89302 | -6.53632 | 34876 ft | 398 kts | 238° |
| 2026-05-07 15:36 | 35.85937 | -6.59033 | 34887 ft | 399 kts | 238° |
| 2026-05-07 15:37 | 35.82576 | -6.64417 | 34889 ft | 398 kts | 238° |
| 2026-05-07 15:37 | 35.79203 | -6.69815 | 34888 ft | 399 kts | 237° |
| 2026-05-07 15:38 | 35.75832 | -6.75205 | 34885 ft | 399 kts | 237° |
| 2026-05-07 15:38 | 35.72477 | -6.80558 | 34889 ft | 400 kts | 237° |
| 2026-05-07 15:39 | 35.69088 | -6.85958 | 34890 ft | 399 kts | 237° |
| 2026-05-07 15:39 | 35.65695 | -6.91350 | 34888 ft | 399 kts | 237° |
| 2026-05-07 15:40 | 35.62294 | -6.96749 | 34894 ft | 400 kts | 237° |
| 2026-05-07 15:40 | 35.58918 | -7.02104 | 34889 ft | 400 kts | 237° |
| 2026-05-07 15:41 | 35.55505 | -7.07505 | 34893 ft | 401 kts | 237° |
| 2026-05-07 15:41 | 35.52102 | -7.12883 | 34893 ft | 400 kts | 237° |
| 2026-05-07 15:42 | 35.48699 | -7.18257 | 34893 ft | 400 kts | 237° |
| 2026-05-07 15:42 | 35.45273 | -7.23653 | 34889 ft | 400 kts | 237° |
| 2026-05-07 15:43 | 35.41875 | -7.28999 | 34891 ft | 400 kts | 237° |
| 2026-05-07 15:43 | 35.38451 | -7.34378 | 34891 ft | 399 kts | 236° |
| 2026-05-07 15:44 | 35.35045 | -7.39718 | 34899 ft | 399 kts | 236° |
| 2026-05-07 15:44 | 35.31617 | -7.45087 | 34903 ft | 400 kts | 236° |
| 2026-05-07 15:45 | 35.28204 | -7.50423 | 34903 ft | 400 kts | 236° |
| 2026-05-07 15:45 | 35.24794 | -7.55746 | 34907 ft | 399 kts | 236° |
| 2026-05-07 15:46 | 35.19644 | -7.63769 | 34906 ft | 399 kts | 236° |
| 2026-05-07 15:47 | 35.16241 | -7.69063 | 34905 ft | 399 kts | 236° |
| 2026-05-07 15:47 | 35.12795 | -7.74412 | 34909 ft | 399 kts | 236° |
| 2026-05-07 15:48 | 35.09377 | -7.79713 | 34942 ft | 398 kts | 236° |
| 2026-05-07 15:48 | 35.05952 | -7.85016 | 34914 ft | 398 kts | 235° |
| 2026-05-07 15:49 | 35.02545 | -7.90281 | 34912 ft | 398 kts | 235° |
| 2026-05-07 15:49 | 34.99135 | -7.95545 | 34910 ft | 397 kts | 235° |
| 2026-05-07 15:50 | 34.95713 | -8.00818 | 34911 ft | 397 kts | 235° |
| 2026-05-07 15:50 | 34.92291 | -8.06083 | 34904 ft | 397 kts | 235° |
| 2026-05-07 15:51 | 34.88860 | -8.11359 | 34913 ft | 397 kts | 235° |
| 2026-05-07 15:51 | 34.85429 | -8.16620 | 35020 ft | 398 kts | 235° |
| 2026-05-07 15:51 | 34.83702 | -8.19266 | 35257 ft | 397 kts | 235° |
| 2026-05-07 15:52 | 34.81996 | -8.21880 | 35489 ft | 396 kts | 235° |
| 2026-05-07 15:52 | 34.80291 | -8.24489 | 35676 ft | 396 kts | 235° |
| 2026-05-07 15:52 | 34.78563 | -8.27130 | 35868 ft | 395 kts | 235° |
| 2026-05-07 15:52 | 34.76860 | -8.29729 | 36063 ft | 394 kts | 235° |
| 2026-05-07 15:53 | 34.75174 | -8.32306 | 36234 ft | 394 kts | 235° |
| 2026-05-07 15:53 | 34.73467 | -8.34910 | 36388 ft | 393 kts | 235° |
| 2026-05-07 15:53 | 34.71752 | -8.37523 | 36536 ft | 393 kts | 235° |
| 2026-05-07 15:53 | 34.70058 | -8.40104 | 36682 ft | 393 kts | 235° |
| 2026-05-07 15:54 | 34.68367 | -8.42679 | 36822 ft | 392 kts | 235° |
| 2026-05-07 15:54 | 34.64974 | -8.47840 | 36915 ft | 393 kts | 235° |
| 2026-05-07 15:55 | 34.61567 | -8.53016 | 36917 ft | 392 kts | 235° |
| 2026-05-07 15:55 | 34.58163 | -8.58176 | 36913 ft | 392 kts | 235° |
| 2026-05-07 15:56 | 34.54750 | -8.63344 | 36915 ft | 392 kts | 235° |
| 2026-05-07 15:56 | 34.51344 | -8.68493 | 36916 ft | 393 kts | 234° |
| 2026-05-07 15:57 | 34.47919 | -8.73655 | 36913 ft | 393 kts | 234° |
| 2026-05-07 15:57 | 34.44232 | -8.78553 | 36915 ft | 396 kts | 229° |
| 2026-05-07 15:58 | 34.40132 | -8.83018 | 36915 ft | 399 kts | 224° |
| 2026-05-07 15:58 | 34.35746 | -8.87150 | 36899 ft | 400 kts | 221° |
| 2026-05-07 15:59 | 34.31405 | -8.91312 | 36908 ft | 399 kts | 224° |
| 2026-05-07 15:59 | 34.27111 | -8.95500 | 36913 ft | 398 kts | 223° |
| 2026-05-07 16:00 | 34.22769 | -8.99689 | 36905 ft | 399 kts | 223° |
| 2026-05-07 16:00 | 34.18424 | -9.03858 | 36905 ft | 400 kts | 223° |
| 2026-05-07 16:01 | 34.14090 | -9.08004 | 36908 ft | 400 kts | 223° |
| 2026-05-07 16:01 | 34.09716 | -9.12180 | 36908 ft | 400 kts | 223° |
| 2026-05-07 16:02 | 34.05360 | -9.16329 | 36909 ft | 400 kts | 223° |
| 2026-05-07 16:02 | 34.01020 | -9.20456 | 36909 ft | 399 kts | 223° |
| 2026-05-07 16:03 | 33.96658 | -9.24600 | 36905 ft | 398 kts | 223° |
| 2026-05-07 16:03 | 33.92334 | -9.28705 | 36912 ft | 398 kts | 223° |
| 2026-05-07 16:04 | 33.87960 | -9.32848 | 36909 ft | 398 kts | 223° |
| 2026-05-07 16:04 | 33.83627 | -9.36947 | 36906 ft | 398 kts | 223° |
| 2026-05-07 16:05 | 33.79276 | -9.41059 | 36908 ft | 399 kts | 223° |
| 2026-05-07 16:05 | 33.74916 | -9.45176 | 36908 ft | 398 kts | 223° |
| 2026-05-07 16:06 | 33.70587 | -9.49254 | 36911 ft | 398 kts | 223° |
| 2026-05-07 16:06 | 33.66211 | -9.53375 | 36905 ft | 398 kts | 223° |
| 2026-05-07 16:07 | 33.61888 | -9.57438 | 36908 ft | 398 kts | 223° |
| 2026-05-07 16:07 | 33.57527 | -9.61532 | 36907 ft | 398 kts | 223° |
| 2026-05-07 16:08 | 33.53151 | -9.65634 | 36913 ft | 399 kts | 223° |
| 2026-05-07 16:08 | 33.48815 | -9.69694 | 36918 ft | 398 kts | 223° |
| 2026-05-07 16:09 | 33.44443 | -9.73782 | 36913 ft | 398 kts | 222° |
| 2026-05-07 16:09 | 33.40092 | -9.77848 | 36915 ft | 398 kts | 223° |
| 2026-05-07 16:10 | 33.35730 | -9.81913 | 36915 ft | 398 kts | 223° |
| 2026-05-07 16:10 | 33.31361 | -9.85984 | 36913 ft | 398 kts | 223° |
| 2026-05-07 16:11 | 33.27004 | -9.90035 | 36913 ft | 398 kts | 223° |
| 2026-05-07 16:11 | 33.22617 | -9.94111 | 36915 ft | 398 kts | 222° |
| 2026-05-07 16:12 | 33.18279 | -9.98137 | 36923 ft | 398 kts | 222° |
| 2026-05-07 16:12 | 33.13909 | -10.02185 | 36924 ft | 398 kts | 222° |
| 2026-05-07 16:13 | 33.09548 | -10.06220 | 36931 ft | 398 kts | 223° |
| 2026-05-07 16:13 | 33.05158 | -10.10277 | 36928 ft | 398 kts | 222° |
| 2026-05-07 16:14 | 33.00789 | -10.14310 | 36932 ft | 398 kts | 223° |
| 2026-05-07 16:14 | 32.96413 | -10.18338 | 36932 ft | 397 kts | 222° |
| 2026-05-07 16:15 | 32.92054 | -10.22344 | 36932 ft | 397 kts | 222° |
| 2026-05-07 16:15 | 32.87682 | -10.26356 | 36930 ft | 397 kts | 222° |
| 2026-05-07 16:16 | 32.83306 | -10.30369 | 36928 ft | 397 kts | 222° |
| 2026-05-07 16:16 | 32.78935 | -10.34372 | 36930 ft | 396 kts | 223° |
| 2026-05-07 16:17 | 32.74570 | -10.38365 | 36928 ft | 396 kts | 222° |
| 2026-05-07 16:17 | 32.70222 | -10.42336 | 36928 ft | 396 kts | 222° |
| 2026-05-07 16:18 | 32.65850 | -10.46325 | 36927 ft | 397 kts | 222° |
| 2026-05-07 16:18 | 32.61508 | -10.50279 | 36930 ft | 396 kts | 223° |
| 2026-05-07 16:19 | 32.57127 | -10.54266 | 36928 ft | 396 kts | 222° |
| 2026-05-07 16:19 | 32.52780 | -10.58217 | 36930 ft | 396 kts | 223° |
| 2026-05-07 16:20 | 32.48400 | -10.62194 | 36929 ft | 395 kts | 223° |
| 2026-05-07 16:20 | 32.44043 | -10.66143 | 36932 ft | 396 kts | 222° |
| 2026-05-07 16:21 | 32.39670 | -10.70101 | 36932 ft | 396 kts | 222° |
| 2026-05-07 16:21 | 32.35307 | -10.74047 | 36925 ft | 396 kts | 222° |
| 2026-05-07 16:22 | 32.30948 | -10.77983 | 36925 ft | 394 kts | 222° |
| 2026-05-07 16:22 | 32.26600 | -10.81904 | 36928 ft | 393 kts | 223° |
| 2026-05-07 16:23 | 32.22268 | -10.85809 | 36932 ft | 392 kts | 222° |
| 2026-05-07 16:23 | 32.17927 | -10.89715 | 36934 ft | 392 kts | 223° |
| 2026-05-07 16:24 | 32.13592 | -10.93611 | 36933 ft | 392 kts | 222° |
| 2026-05-07 16:24 | 32.09272 | -10.97487 | 36931 ft | 393 kts | 223° |
| 2026-05-07 16:25 | 32.04921 | -11.01390 | 36931 ft | 392 kts | 223° |
| 2026-05-07 16:25 | 32.00597 | -11.05264 | 36931 ft | 392 kts | 222° |
| 2026-05-07 16:26 | 31.96261 | -11.09139 | 36938 ft | 393 kts | 222° |
| 2026-05-07 16:26 | 31.91911 | -11.13025 | 36946 ft | 392 kts | 223° |
| 2026-05-07 16:27 | 31.87558 | -11.16907 | 36950 ft | 391 kts | 223° |
| 2026-05-07 16:27 | 31.83231 | -11.20762 | 36948 ft | 391 kts | 223° |
| 2026-05-07 16:28 | 31.78922 | -11.24601 | 36944 ft | 390 kts | 223° |
| 2026-05-07 16:28 | 31.74585 | -11.28455 | 36946 ft | 391 kts | 223° |
| 2026-05-07 16:29 | 31.70275 | -11.32301 | 36943 ft | 391 kts | 223° |
| 2026-05-07 16:29 | 31.65947 | -11.36161 | 36946 ft | 391 kts | 223° |
| 2026-05-07 16:30 | 31.61617 | -11.40015 | 36949 ft | 391 kts | 223° |
| 2026-05-07 16:30 | 31.57274 | -11.43877 | 36950 ft | 390 kts | 223° |
| 2026-05-07 16:31 | 31.52969 | -11.47700 | 36950 ft | 391 kts | 223° |
| 2026-05-07 16:31 | 31.48612 | -11.51567 | 36949 ft | 391 kts | 223° |
| 2026-05-07 16:32 | 31.44296 | -11.55390 | 36948 ft | 390 kts | 223° |
| 2026-05-07 16:32 | 31.39977 | -11.59211 | 36945 ft | 390 kts | 223° |
| 2026-05-07 16:33 | 31.35635 | -11.63048 | 36946 ft | 390 kts | 223° |
| 2026-05-07 16:33 | 31.31327 | -11.66853 | 36945 ft | 391 kts | 223° |
| 2026-05-07 16:34 | 31.26975 | -11.70688 | 36947 ft | 391 kts | 223° |
| 2026-05-07 16:34 | 31.22632 | -11.74512 | 36940 ft | 391 kts | 223° |
| 2026-05-07 16:35 | 31.18327 | -11.78302 | 36942 ft | 391 kts | 223° |
| 2026-05-07 16:35 | 31.13971 | -11.82127 | 36948 ft | 391 kts | 223° |
| 2026-05-07 16:36 | 31.09626 | -11.85944 | 36945 ft | 390 kts | 223° |
| 2026-05-07 16:36 | 31.05286 | -11.89748 | 36947 ft | 390 kts | 223° |
| 2026-05-07 16:37 | 31.00963 | -11.93532 | 36949 ft | 390 kts | 223° |
| 2026-05-07 16:37 | 30.96620 | -11.97331 | 36949 ft | 389 kts | 223° |
| 2026-05-07 16:38 | 30.92310 | -12.01095 | 36948 ft | 390 kts | 223° |
| 2026-05-07 16:38 | 30.87955 | -12.04894 | 36954 ft | 390 kts | 223° |
| 2026-05-07 16:39 | 30.83631 | -12.08664 | 36948 ft | 390 kts | 223° |
| 2026-05-07 16:39 | 30.79770 | -12.12025 | 36951 ft | 390 kts | 223° |
| 2026-05-07 16:40 | 30.75435 | -12.15796 | 36951 ft | 390 kts | 223° |
| 2026-05-07 16:40 | 30.71085 | -12.19574 | 36940 ft | 391 kts | 223° |
| 2026-05-07 16:41 | 30.66744 | -12.23338 | 36948 ft | 391 kts | 223° |
| 2026-05-07 16:41 | 30.62385 | -12.27115 | 36955 ft | 391 kts | 223° |
| 2026-05-07 16:42 | 30.58036 | -12.30882 | 36952 ft | 391 kts | 223° |
| 2026-05-07 16:42 | 30.53698 | -12.34632 | 36958 ft | 390 kts | 223° |
| 2026-05-07 16:43 | 30.49315 | -12.38415 | 36960 ft | 391 kts | 223° |
| 2026-05-07 16:43 | 30.44979 | -12.42144 | 36954 ft | 391 kts | 223° |
| 2026-05-07 16:44 | 30.40592 | -12.45910 | 36958 ft | 390 kts | 223° |
| 2026-05-07 16:44 | 30.36239 | -12.49644 | 36962 ft | 391 kts | 223° |
| 2026-05-07 16:45 | 30.31871 | -12.53389 | 36961 ft | 391 kts | 224° |
| 2026-05-07 16:45 | 30.27525 | -12.57109 | 36962 ft | 391 kts | 223° |
| 2026-05-07 16:46 | 30.23144 | -12.60857 | 36966 ft | 391 kts | 224° |
| 2026-05-07 16:46 | 30.18782 | -12.64580 | 36966 ft | 391 kts | 223° |
| 2026-05-07 16:47 | 30.14420 | -12.68303 | 36966 ft | 391 kts | 223° |
| 2026-05-07 16:47 | 30.10067 | -12.72058 | 36966 ft | 390 kts | 225° |
| 2026-05-07 16:48 | 30.05841 | -12.76034 | 36966 ft | 390 kts | 225° |
| 2026-05-07 16:48 | 30.01639 | -12.79983 | 36968 ft | 390 kts | 225° |
| 2026-05-07 16:49 | 29.97445 | -12.83923 | 36961 ft | 390 kts | 225° |
| 2026-05-07 16:49 | 29.93255 | -12.87866 | 36953 ft | 389 kts | 227° |
| 2026-05-07 16:50 | 29.89765 | -12.92468 | 36957 ft | 379 kts | 240° |
| 2026-05-07 16:50 | 29.86953 | -12.97573 | 36955 ft | 379 kts | 242° |
| 2026-05-07 16:51 | 29.84135 | -13.02721 | 36953 ft | 379 kts | 242° |
| 2026-05-07 16:51 | 29.81327 | -13.07845 | 36954 ft | 379 kts | 242° |
| 2026-05-07 16:52 | 29.78535 | -13.12936 | 36953 ft | 377 kts | 242° |
| 2026-05-07 16:52 | 29.75720 | -13.18055 | 36949 ft | 378 kts | 242° |
| 2026-05-07 16:53 | 29.72923 | -13.23134 | 36948 ft | 378 kts | 242° |
| 2026-05-07 16:53 | 29.70101 | -13.28257 | 36950 ft | 379 kts | 242° |
| 2026-05-07 16:54 | 29.67291 | -13.33352 | 36953 ft | 378 kts | 242° |
| 2026-05-07 16:54 | 29.64480 | -13.38440 | 36949 ft | 378 kts | 242° |
| 2026-05-07 16:55 | 29.61674 | -13.43512 | 36951 ft | 378 kts | 242° |
| 2026-05-07 16:55 | 29.58860 | -13.48594 | 36950 ft | 378 kts | 242° |
| 2026-05-07 16:56 | 29.56040 | -13.53681 | 36949 ft | 378 kts | 242° |
| 2026-05-07 16:56 | 29.51815 | -13.61288 | 36948 ft | 378 kts | 242° |
| 2026-05-07 16:57 | 29.48984 | -13.66377 | 36954 ft | 378 kts | 242° |
| 2026-05-07 16:57 | 29.46168 | -13.71435 | 36947 ft | 378 kts | 242° |
| 2026-05-07 16:58 | 29.43324 | -13.76536 | 36948 ft | 379 kts | 242° |
| 2026-05-07 16:58 | 29.40491 | -13.81611 | 36951 ft | 379 kts | 242° |
| 2026-05-07 16:59 | 29.37647 | -13.86694 | 36948 ft | 379 kts | 242° |
| 2026-05-07 16:59 | 29.34810 | -13.91764 | 36956 ft | 379 kts | 242° |
| 2026-05-07 17:00 | 29.31977 | -13.96821 | 36949 ft | 379 kts | 242° |
| 2026-05-07 17:00 | 29.29140 | -14.01877 | 36952 ft | 379 kts | 242° |
| 2026-05-07 17:01 | 29.26287 | -14.06960 | 36955 ft | 379 kts | 242° |
| 2026-05-07 17:01 | 29.23447 | -14.12005 | 36958 ft | 378 kts | 242° |
| 2026-05-07 17:02 | 29.20604 | -14.17052 | 36959 ft | 378 kts | 242° |
| 2026-05-07 17:02 | 29.17756 | -14.22102 | 36960 ft | 379 kts | 242° |
| 2026-05-07 17:03 | 29.14906 | -14.27151 | 36961 ft | 379 kts | 242° |
| 2026-05-07 17:03 | 29.12052 | -14.32203 | 36961 ft | 378 kts | 242° |
| 2026-05-07 17:04 | 29.09206 | -14.37232 | 36962 ft | 378 kts | 242° |
| 2026-05-07 17:04 | 29.06355 | -14.42264 | 36961 ft | 379 kts | 242° |
| 2026-05-07 17:05 | 29.03488 | -14.47318 | 36964 ft | 378 kts | 242° |
| 2026-05-07 17:05 | 29.00623 | -14.52358 | 36962 ft | 378 kts | 242° |
| 2026-05-07 17:06 | 28.97760 | -14.57397 | 36962 ft | 379 kts | 242° |
| 2026-05-07 17:06 | 28.94903 | -14.62412 | 36967 ft | 378 kts | 242° |
| 2026-05-07 17:07 | 28.92037 | -14.67443 | 36970 ft | 378 kts | 242° |
| 2026-05-07 17:07 | 28.89185 | -14.72441 | 36971 ft | 378 kts | 242° |
| 2026-05-07 17:08 | 28.86327 | -14.77444 | 36972 ft | 377 kts | 241° |
| 2026-05-07 17:08 | 28.83447 | -14.82475 | 36973 ft | 377 kts | 242° |
| 2026-05-07 17:09 | 28.80586 | -14.87468 | 36973 ft | 378 kts | 242° |
| 2026-05-07 17:09 | 28.77726 | -14.92459 | 36973 ft | 377 kts | 242° |
| 2026-05-07 17:10 | 28.74861 | -14.97452 | 36971 ft | 377 kts | 242° |
| 2026-05-07 17:10 | 28.71990 | -15.02442 | 36973 ft | 378 kts | 242° |
| 2026-05-07 17:11 | 28.69114 | -15.07440 | 36974 ft | 378 kts | 242° |
| 2026-05-07 17:11 | 28.66235 | -15.12439 | 36972 ft | 378 kts | 242° |
| 2026-05-07 17:12 | 28.63348 | -15.17447 | 36971 ft | 378 kts | 242° |
| 2026-05-07 17:12 | 28.60463 | -15.22438 | 36972 ft | 379 kts | 242° |
| 2026-05-07 17:13 | 28.57586 | -15.27415 | 36972 ft | 379 kts | 242° |
| 2026-05-07 17:13 | 28.54686 | -15.32428 | 36971 ft | 379 kts | 242° |
| 2026-05-07 17:14 | 28.51784 | -15.37431 | 36974 ft | 379 kts | 242° |
| 2026-05-07 17:14 | 28.48894 | -15.42414 | 36972 ft | 380 kts | 242° |
| 2026-05-07 17:15 | 28.45982 | -15.47424 | 36950 ft | 377 kts | 242° |
| 2026-05-07 17:15 | 28.44552 | -15.49884 | 36612 ft | 373 kts | 242° |
| 2026-05-07 17:15 | 28.43121 | -15.52340 | 35929 ft | 372 kts | 242° |
| 2026-05-07 17:16 | 28.41708 | -15.54770 | 35197 ft | 372 kts | 242° |
| 2026-05-07 17:16 | 28.40280 | -15.57228 | 34404 ft | 374 kts | 242° |
| 2026-05-07 17:16 | 28.38849 | -15.59685 | 33531 ft | 377 kts | 241° |
| 2026-05-07 17:16 | 28.37396 | -15.62178 | 32647 ft | 381 kts | 241° |
| 2026-05-07 17:17 | 28.35946 | -15.64666 | 31790 ft | 385 kts | 241° |
| 2026-05-07 17:17 | 28.34474 | -15.67186 | 30956 ft | 388 kts | 240° |
| 2026-05-07 17:17 | 28.32987 | -15.69735 | 30117 ft | 390 kts | 240° |
| 2026-05-07 17:17 | 28.31477 | -15.72319 | 29310 ft | 392 kts | 240° |
| 2026-05-07 17:18 | 28.29977 | -15.74882 | 28747 ft | 388 kts | 240° |
| 2026-05-07 17:18 | 28.28497 | -15.77404 | 28226 ft | 384 kts | 240° |
| 2026-05-07 17:18 | 28.27023 | -15.79916 | 27653 ft | 381 kts | 240° |
| 2026-05-07 17:18 | 28.25578 | -15.82383 | 27072 ft | 379 kts | 240° |
| 2026-05-07 17:19 | 28.24129 | -15.84858 | 26523 ft | 375 kts | 240° |
| 2026-05-07 17:19 | 28.22893 | -15.87433 | 25959 ft | 369 kts | 248° |
| 2026-05-07 17:19 | 28.21892 | -15.90101 | 25418 ft | 366 kts | 249° |
| 2026-05-07 17:19 | 28.20941 | -15.92717 | 24860 ft | 363 kts | 249° |
| 2026-05-07 17:20 | 28.19972 | -15.95343 | 24284 ft | 362 kts | 249° |
| 2026-05-07 17:20 | 28.19000 | -15.97954 | 23737 ft | 359 kts | 249° |
| 2026-05-07 17:20 | 28.18026 | -16.00542 | 23175 ft | 358 kts | 249° |
| 2026-05-07 17:20 | 28.17050 | -16.03120 | 22625 ft | 356 kts | 248° |
| 2026-05-07 17:21 | 28.16071 | -16.05687 | 22111 ft | 354 kts | 249° |
| 2026-05-07 17:21 | 28.15104 | -16.08219 | 21618 ft | 351 kts | 248° |
| 2026-05-07 17:21 | 28.14127 | -16.10767 | 21087 ft | 349 kts | 248° |
| 2026-05-07 17:21 | 28.13169 | -16.13266 | 20565 ft | 347 kts | 248° |
| 2026-05-07 17:22 | 28.12213 | -16.15759 | 20029 ft | 346 kts | 248° |
| 2026-05-07 17:22 | 28.11251 | -16.18258 | 19513 ft | 344 kts | 248° |
| 2026-05-07 17:22 | 28.10304 | -16.20715 | 19014 ft | 342 kts | 248° |
| 2026-05-07 17:22 | 28.09367 | -16.23149 | 18508 ft | 340 kts | 248° |
| 2026-05-07 17:23 | 28.08417 | -16.25607 | 17993 ft | 338 kts | 248° |
| 2026-05-07 17:23 | 28.07475 | -16.28049 | 17464 ft | 337 kts | 248° |
| 2026-05-07 17:23 | 28.06549 | -16.30445 | 16955 ft | 336 kts | 248° |
| 2026-05-07 17:23 | 28.05621 | -16.32850 | 16451 ft | 334 kts | 248° |
| 2026-05-07 17:24 | 28.04688 | -16.35258 | 15980 ft | 332 kts | 249° |
| 2026-05-07 17:24 | 28.03768 | -16.37631 | 15459 ft | 331 kts | 249° |
| 2026-05-07 17:24 | 28.02849 | -16.40010 | 14929 ft | 329 kts | 249° |
| 2026-05-07 17:24 | 28.01936 | -16.42364 | 14441 ft | 328 kts | 249° |
| 2026-05-07 17:25 | 28.01022 | -16.44717 | 13923 ft | 327 kts | 249° |
| 2026-05-07 17:25 | 28.00116 | -16.47059 | 13430 ft | 325 kts | 249° |
| 2026-05-07 17:25 | 27.99209 | -16.49394 | 12927 ft | 324 kts | 249° |
| 2026-05-07 17:25 | 27.98310 | -16.51708 | 12428 ft | 324 kts | 249° |
| 2026-05-07 17:26 | 27.97411 | -16.54024 | 11924 ft | 323 kts | 250° |
| 2026-05-07 17:26 | 27.96505 | -16.56355 | 11430 ft | 322 kts | 249° |
| 2026-05-07 17:26 | 27.95609 | -16.58655 | 10952 ft | 321 kts | 250° |
| 2026-05-07 17:26 | 27.94710 | -16.60965 | 10500 ft | 319 kts | 250° |
| 2026-05-07 17:27 | 27.93829 | -16.63222 | 10290 ft | 308 kts | 250° |
| 2026-05-07 17:27 | 27.92982 | -16.65392 | 10104 ft | 298 kts | 250° |
| 2026-05-07 17:27 | 27.92153 | -16.67511 | 9878 ft | 289 kts | 250° |
| 2026-05-07 17:27 | 27.91358 | -16.69552 | 9707 ft | 280 kts | 250° |
| 2026-05-07 17:28 | 27.90584 | -16.71541 | 9437 ft | 275 kts | 250° |
| 2026-05-07 17:28 | 27.89820 | -16.73502 | 9049 ft | 275 kts | 250° |
| 2026-05-07 17:28 | 27.89052 | -16.75471 | 8683 ft | 274 kts | 250° |
| 2026-05-07 17:28 | 27.88283 | -16.77443 | 8315 ft | 273 kts | 250° |
| 2026-05-07 17:29 | 27.87516 | -16.79410 | 7935 ft | 272 kts | 249° |
| 2026-05-07 17:29 | 27.86753 | -16.81359 | 7560 ft | 271 kts | 250° |
| 2026-05-07 17:29 | 27.85994 | -16.83296 | 7189 ft | 270 kts | 249° |
| 2026-05-07 17:29 | 27.85244 | -16.85210 | 6805 ft | 269 kts | 249° |
| 2026-05-07 17:30 | 27.84491 | -16.87131 | 6439 ft | 268 kts | 249° |
| 2026-05-07 17:30 | 27.83738 | -16.89052 | 6060 ft | 267 kts | 249° |
| 2026-05-07 17:30 | 27.82985 | -16.90972 | 5673 ft | 266 kts | 248° |
| 2026-05-07 17:30 | 27.82347 | -16.92917 | 5256 ft | 263 kts | 264° |
| 2026-05-07 17:31 | 27.82604 | -16.94882 | 4983 ft | 252 kts | 298° |
| 2026-05-07 17:31 | 27.83672 | -16.96374 | 4788 ft | 239 kts | 322° |
| 2026-05-07 17:31 | 27.85092 | -16.97223 | 4566 ft | 229 kts | 343° |
| 2026-05-07 17:31 | 27.86651 | -16.97407 | 4341 ft | 219 kts | 5° |
| 2026-05-07 17:32 | 27.88077 | -16.96960 | 4110 ft | 212 kts | 26° |
| 2026-05-07 17:32 | 27.89298 | -16.96063 | 3784 ft | 210 kts | 38° |
| 2026-05-07 17:32 | 27.90360 | -16.94910 | 3416 ft | 209 kts | 46° |
| 2026-05-07 17:32 | 27.90997 | -16.94113 | 3183 ft | 208 kts | 49° |
| 2026-05-07 17:33 | 27.92087 | -16.92288 | 2956 ft | 217 kts | 62° |
| 2026-05-07 17:33 | 27.92749 | -16.90729 | 2960 ft | 221 kts | 65° |
| 2026-05-07 17:33 | 27.93358 | -16.89145 | 2950 ft | 221 kts | 66° |
| 2026-05-07 17:33 | 27.93936 | -16.87561 | 2944 ft | 216 kts | 68° |
| 2026-05-07 17:34 | 27.94479 | -16.86033 | 3012 ft | 205 kts | 68° |
| 2026-05-07 17:34 | 27.95007 | -16.84520 | 2976 ft | 202 kts | 68° |
| 2026-05-07 17:34 | 27.95504 | -16.83081 | 2805 ft | 193 kts | 67° |
| 2026-05-07 17:34 | 27.95978 | -16.81706 | 2644 ft | 181 kts | 68° |
| 2026-05-07 17:35 | 27.96424 | -16.80409 | 2215 ft | 179 kts | 68° |
| 2026-05-07 17:35 | 27.96876 | -16.79098 | 1966 ft | 179 kts | 68° |
| 2026-05-07 17:35 | 27.97305 | -16.77851 | 1933 ft | 160 kts | 67° |
| 2026-05-07 17:35 | 27.97690 | -16.76731 | 1907 ft | 146 kts | 66° |
| 2026-05-07 17:36 | 27.98059 | -16.75665 | 1922 ft | 145 kts | 67° |
| 2026-05-07 17:36 | 27.98424 | -16.74609 | 1936 ft | 145 kts | 67° |
| 2026-05-07 17:36 | 27.98797 | -16.73528 | 1944 ft | 150 kts | 66° |
| 2026-05-07 17:36 | 27.99184 | -16.72410 | 1929 ft | 153 kts | 67° |
| 2026-05-07 17:37 | 27.99573 | -16.71287 | 1944 ft | 154 kts | 66° |
| 2026-05-07 17:37 | 27.99965 | -16.70156 | 1948 ft | 154 kts | 66° |
| 2026-05-07 17:37 | 28.00359 | -16.69019 | 1958 ft | 156 kts | 66° |
| 2026-05-07 17:37 | 28.00756 | -16.67873 | 1888 ft | 154 kts | 67° |
| 2026-05-07 17:38 | 28.01146 | -16.66749 | 1702 ft | 153 kts | 66° |
| 2026-05-07 17:38 | 28.01533 | -16.65636 | 1494 ft | 152 kts | 67° |
| 2026-05-07 17:38 | 28.01917 | -16.64530 | 1303 ft | 152 kts | 67° |
| 2026-05-07 17:38 | 28.02302 | -16.63424 | 1101 ft | 151 kts | 68° |
| 2026-05-07 17:39 | 28.02688 | -16.62315 | 904 ft | 150 kts | 69° |
| 2026-05-07 17:39 | 28.02965 | -16.61518 | 765 ft | 149 kts | 70° |
| 2026-05-07 17:39 | 28.03336 | -16.60414 | 598 ft | 149 kts | 71° |
| 2026-05-07 17:39 | 28.03707 | -16.59325 | 395 ft | 148 kts | 66° |
| 2026-05-07 17:40 | 28.04076 | -16.58313 | 226 ft | 129 kts | 68° |
| 2026-05-07 17:40 | 28.04350 | -16.57522 | 225 ft | 82 kts | 69° |
| 2026-05-07 17:40 | 28.04500 | -16.57103 | 225 ft | 42 kts | 66° |
| 2026-05-07 17:40 | 28.04673 | -16.56854 | 226 ft | 38 kts | 48° |
| 2026-05-07 17:41 | 28.04781 | -16.56782 | 226 ft | 9 kts | 299° |
| 2026-05-07 17:41 | 28.04773 | -16.56868 | 226 ft | 11 kts | 250° |
| 2026-05-07 17:41 | 28.04738 | -16.56966 | 226 ft | 15 kts | 248° |
| 2026-05-07 17:41 | 28.04694 | -16.57091 | 226 ft | 18 kts | 246° |
| 2026-05-07 17:42 | 28.04635 | -16.57236 | 225 ft | 21 kts | 248° |
| 2026-05-07 17:42 | 28.04581 | -16.57394 | 225 ft | 17 kts | 254° |
| 2026-05-07 17:42 | 28.04659 | -16.57484 | 226 ft | 18 kts | 321° |
| 2026-05-07 17:42 | 28.04644 | -16.57575 | 226 ft | 12 kts | 249° |
| 2026-05-07 17:43 | 28.04649 | -16.57655 | 226 ft | 10 kts | 328° |
| 2026-05-07 17:43 | 28.04700 | -16.57677 | 226 ft | 4 kts | 339° |
| 2026-05-07 17:43 | 28.04707 | -16.57681 | 226 ft | 0 kts | 339° |